sensor_id;sensor_type;location;lat;lon;timestamp;temperature;humidity
262;DHT22;114;48.260;10.988;2023-10-13T00:02:11;15.20;1.00
262;DHT22;114;48.260;10.988;2023-10-13T00:04:39;15.10;1.00
262;DHT22;114;48.260;10.988;2023-10-13T00:07:05;15.10;1.00
262;DHT22;114;48.260;10.988;2023-10-13T00:09:34;15.10;1.00
262;DHT22;114;48.260;10.988;2023-10-13T00:12:05;15.10;1.00
262;DHT22;114;48.260;10.988;2023-10-13T00:14:35;15.10;1.00
262;DHT22;114;48.260;10.988;2023-10-13T00:17:03;15.10;1.00
262;DHT22;114;48.260;10.988;2023-10-13T00:19:41;15.10;1.00
262;DHT22;114;48.260;10.988;2023-10-13T00:22:17;15.10;1.00
262;DHT22;114;48.260;10.988;2023-10-13T00:24:45;15.10;1.00
262;DHT22;114;48.260;10.988;2023-10-13T00:27:15;15.10;1.00
262;DHT22;114;48.260;10.988;2023-10-13T00:32:52;15.10;1.00
262;DHT22;114;48.260;10.988;2023-10-13T00:35:29;15.00;1.00
262;DHT22;114;48.260;10.988;2023-10-13T00:38:01;15.00;1.00
262;DHT22;114;48.260;10.988;2023-10-13T00:40:48;15.00;1.00
262;DHT22;114;48.260;10.988;2023-10-13T00:43:18;15.00;1.00
262;DHT22;114;48.260;10.988;2023-10-13T00:45:46;15.00;1.00
262;DHT22;114;48.260;10.988;2023-10-13T00:48:37;15.00;1.00
262;DHT22;114;48.260;10.988;2023-10-13T00:51:13;15.00;1.00
262;DHT22;114;48.260;10.988;2023-10-13T00:54:02;15.20;1.00
262;DHT22;114;48.260;10.988;2023-10-13T00:56:33;15.30;1.00
262;DHT22;114;48.260;10.988;2023-10-13T00:59:00;15.50;1.00
262;DHT22;114;48.260;10.988;2023-10-13T01:01:30;15.50;1.00
262;DHT22;114;48.260;10.988;2023-10-13T01:03:59;15.50;1.00
262;DHT22;114;48.260;10.988;2023-10-13T01:06:28;15.60;1.00
262;DHT22;114;48.260;10.988;2023-10-13T01:11:25;15.80;1.00
262;DHT22;114;48.260;10.988;2023-10-13T01:13:56;16.00;1.00
262;DHT22;114;48.260;10.988;2023-10-13T01:16:22;16.00;1.00
262;DHT22;114;48.260;10.988;2023-10-13T01:18:52;16.00;1.00
262;DHT22;114;48.260;10.988;2023-10-13T01:21:18;16.00;1.00
262;DHT22;114;48.260;10.988;2023-10-13T01:23:53;16.00;1.00
262;DHT22;114;48.260;10.988;2023-10-13T01:26:19;16.20;1.00
262;DHT22;114;48.260;10.988;2023-10-13T01:28:57;16.10;1.00
262;DHT22;114;48.260;10.988;2023-10-13T01:31:23;16.30;1.00
262;DHT22;114;48.260;10.988;2023-10-13T01:33:56;16.20;1.00
262;DHT22;114;48.260;10.988;2023-10-13T01:36:28;16.10;1.00
262;DHT22;114;48.260;10.988;2023-10-13T01:38:54;16.00;1.00
262;DHT22;114;48.260;10.988;2023-10-13T01:41:21;15.90;1.00
262;DHT22;114;48.260;10.988;2023-10-13T01:43:47;15.80;1.00
262;DHT22;114;48.260;10.988;2023-10-13T01:46:14;15.70;1.00
262;DHT22;114;48.260;10.988;2023-10-13T01:48:41;15.60;1.00
262;DHT22;114;48.260;10.988;2023-10-13T01:51:09;15.50;1.00
262;DHT22;114;48.260;10.988;2023-10-13T01:53:39;15.30;1.00
262;DHT22;114;48.260;10.988;2023-10-13T01:56:06;15.20;1.00
262;DHT22;114;48.260;10.988;2023-10-13T01:58:40;15.10;1.00
262;DHT22;114;48.260;10.988;2023-10-13T02:01:11;15.10;1.00
262;DHT22;114;48.260;10.988;2023-10-13T02:03:39;15.00;1.00
262;DHT22;114;48.260;10.988;2023-10-13T02:06:12;14.90;1.00
262;DHT22;114;48.260;10.988;2023-10-13T02:08:43;14.80;1.00
262;DHT22;114;48.260;10.988;2023-10-13T02:11:09;14.70;1.00
262;DHT22;114;48.260;10.988;2023-10-13T02:13:35;14.70;1.00
262;DHT22;114;48.260;10.988;2023-10-13T02:16:14;14.60;1.00
262;DHT22;114;48.260;10.988;2023-10-13T02:18:44;14.50;1.00
262;DHT22;114;48.260;10.988;2023-10-13T02:21:09;14.40;1.00
262;DHT22;114;48.260;10.988;2023-10-13T02:23:39;14.30;1.00
262;DHT22;114;48.260;10.988;2023-10-13T02:26:16;14.20;1.00
262;DHT22;114;48.260;10.988;2023-10-13T02:28:59;14.20;1.00
262;DHT22;114;48.260;10.988;2023-10-13T02:31:27;14.10;1.00
262;DHT22;114;48.260;10.988;2023-10-13T02:33:53;14.00;1.00
262;DHT22;114;48.260;10.988;2023-10-13T02:36:20;13.90;1.00
262;DHT22;114;48.260;10.988;2023-10-13T02:38:49;13.80;1.00
262;DHT22;114;48.260;10.988;2023-10-13T02:41:20;13.70;1.00
262;DHT22;114;48.260;10.988;2023-10-13T02:43:52;13.60;1.00
262;DHT22;114;48.260;10.988;2023-10-13T02:46:23;13.50;1.00
262;DHT22;114;48.260;10.988;2023-10-13T02:48:49;13.40;1.00
262;DHT22;114;48.260;10.988;2023-10-13T02:51:27;13.30;1.00
262;DHT22;114;48.260;10.988;2023-10-13T02:54:03;13.30;1.00
262;DHT22;114;48.260;10.988;2023-10-13T02:56:34;13.20;1.00
262;DHT22;114;48.260;10.988;2023-10-13T02:59:02;13.10;1.00
262;DHT22;114;48.260;10.988;2023-10-13T03:01:35;13.00;1.00
262;DHT22;114;48.260;10.988;2023-10-13T03:04:02;12.90;1.00
262;DHT22;114;48.260;10.988;2023-10-13T03:06:35;12.90;1.00
262;DHT22;114;48.260;10.988;2023-10-13T03:09:08;12.80;1.00
262;DHT22;114;48.260;10.988;2023-10-13T03:11:41;12.70;1.00
262;DHT22;114;48.260;10.988;2023-10-13T03:14:22;12.70;1.00
262;DHT22;114;48.260;10.988;2023-10-13T03:16:56;12.70;1.00
262;DHT22;114;48.260;10.988;2023-10-13T03:19:28;12.60;1.00
262;DHT22;114;48.260;10.988;2023-10-13T03:21:59;12.60;1.00
262;DHT22;114;48.260;10.988;2023-10-13T03:24:36;12.50;1.00
262;DHT22;114;48.260;10.988;2023-10-13T03:27:05;12.50;1.00
262;DHT22;114;48.260;10.988;2023-10-13T03:29:38;12.40;1.00
262;DHT22;114;48.260;10.988;2023-10-13T03:32:17;12.40;1.00
262;DHT22;114;48.260;10.988;2023-10-13T03:34:44;12.40;1.00
262;DHT22;114;48.260;10.988;2023-10-13T03:37:24;12.30;1.00
262;DHT22;114;48.260;10.988;2023-10-13T03:40:10;12.30;1.00
262;DHT22;114;48.260;10.988;2023-10-13T03:42:55;12.30;1.00
262;DHT22;114;48.260;10.988;2023-10-13T03:45:35;12.20;1.00
262;DHT22;114;48.260;10.988;2023-10-13T03:48:26;12.20;1.00
262;DHT22;114;48.260;10.988;2023-10-13T03:51:00;12.10;1.00
262;DHT22;114;48.260;10.988;2023-10-13T03:53:42;12.10;1.00
262;DHT22;114;48.260;10.988;2023-10-13T03:56:21;12.00;1.00
262;DHT22;114;48.260;10.988;2023-10-13T03:59:05;12.00;1.00
262;DHT22;114;48.260;10.988;2023-10-13T04:01:49;12.00;1.00
262;DHT22;114;48.260;10.988;2023-10-13T04:04:24;12.30;1.00
262;DHT22;114;48.260;10.988;2023-10-13T04:07:08;12.70;1.00
262;DHT22;114;48.260;10.988;2023-10-13T04:09:36;12.70;1.00
262;DHT22;114;48.260;10.988;2023-10-13T04:12:06;12.40;1.00
262;DHT22;114;48.260;10.988;2023-10-13T04:14:42;12.30;1.00
262;DHT22;114;48.260;10.988;2023-10-13T04:17:27;12.10;1.00
262;DHT22;114;48.260;10.988;2023-10-13T04:19:58;12.00;1.00
262;DHT22;114;48.260;10.988;2023-10-13T04:22:40;11.90;1.00
262;DHT22;114;48.260;10.988;2023-10-13T04:25:22;11.70;1.00
262;DHT22;114;48.260;10.988;2023-10-13T04:28:09;11.70;1.00
262;DHT22;114;48.260;10.988;2023-10-13T04:33:25;11.50;1.00
262;DHT22;114;48.260;10.988;2023-10-13T04:36:08;11.40;1.00
262;DHT22;114;48.260;10.988;2023-10-13T04:41:38;11.30;1.00
262;DHT22;114;48.260;10.988;2023-10-13T04:44:15;11.20;1.00
262;DHT22;114;48.260;10.988;2023-10-13T04:47:00;11.10;1.00
262;DHT22;114;48.260;10.988;2023-10-13T04:49:27;11.10;1.00
262;DHT22;114;48.260;10.988;2023-10-13T04:52:08;11.00;1.00
262;DHT22;114;48.260;10.988;2023-10-13T04:54:36;11.00;1.00
262;DHT22;114;48.260;10.988;2023-10-13T04:57:22;10.90;1.00
262;DHT22;114;48.260;10.988;2023-10-13T04:59:49;10.90;1.00
262;DHT22;114;48.260;10.988;2023-10-13T05:02:34;10.90;1.00
262;DHT22;114;48.260;10.988;2023-10-13T05:05:08;10.80;1.00
262;DHT22;114;48.260;10.988;2023-10-13T05:07:46;10.80;1.00
262;DHT22;114;48.260;10.988;2023-10-13T05:10:31;10.90;1.00
262;DHT22;114;48.260;10.988;2023-10-13T05:13:15;10.80;1.00
262;DHT22;114;48.260;10.988;2023-10-13T05:16:00;10.90;1.00
262;DHT22;114;48.260;10.988;2023-10-13T05:18:44;10.90;1.00
262;DHT22;114;48.260;10.988;2023-10-13T05:21:28;11.00;1.00
262;DHT22;114;48.260;10.988;2023-10-13T05:24:13;11.00;1.00
262;DHT22;114;48.260;10.988;2023-10-13T05:26:57;11.00;1.00
262;DHT22;114;48.260;10.988;2023-10-13T05:29:42;11.00;1.00
262;DHT22;114;48.260;10.988;2023-10-13T05:32:27;10.90;1.00
262;DHT22;114;48.260;10.988;2023-10-13T05:35:11;10.90;1.00
262;DHT22;114;48.260;10.988;2023-10-13T05:37:56;10.80;1.00
262;DHT22;114;48.260;10.988;2023-10-13T05:40:40;10.80;1.00
262;DHT22;114;48.260;10.988;2023-10-13T05:43:24;10.80;1.00
262;DHT22;114;48.260;10.988;2023-10-13T05:46:08;10.70;1.00
262;DHT22;114;48.260;10.988;2023-10-13T05:49:02;10.80;1.00
262;DHT22;114;48.260;10.988;2023-10-13T05:51:31;10.80;1.00
262;DHT22;114;48.260;10.988;2023-10-13T05:53:57;10.80;1.00
262;DHT22;114;48.260;10.988;2023-10-13T05:56:48;10.80;1.00
262;DHT22;114;48.260;10.988;2023-10-13T05:59:44;10.80;1.00
262;DHT22;114;48.260;10.988;2023-10-13T06:02:28;10.80;1.00
262;DHT22;114;48.260;10.988;2023-10-13T06:05:13;10.90;1.00
262;DHT22;114;48.260;10.988;2023-10-13T06:07:58;10.90;1.00
262;DHT22;114;48.260;10.988;2023-10-13T06:10:43;11.00;1.00
262;DHT22;114;48.260;10.988;2023-10-13T06:13:27;11.10;1.00
262;DHT22;114;48.260;10.988;2023-10-13T06:16:16;11.20;1.00
262;DHT22;114;48.260;10.988;2023-10-13T06:19:01;11.30;1.00
262;DHT22;114;48.260;10.988;2023-10-13T06:21:46;11.40;1.00
262;DHT22;114;48.260;10.988;2023-10-13T06:24:31;11.40;1.00
262;DHT22;114;48.260;10.988;2023-10-13T06:27:16;11.50;1.00
262;DHT22;114;48.260;10.988;2023-10-13T06:30:20;11.60;1.00
262;DHT22;114;48.260;10.988;2023-10-13T06:32:46;11.80;1.00
262;DHT22;114;48.260;10.988;2023-10-13T06:35:12;11.90;1.00
262;DHT22;114;48.260;10.988;2023-10-13T06:37:45;12.10;1.00
262;DHT22;114;48.260;10.988;2023-10-13T06:40:12;12.30;1.00
262;DHT22;114;48.260;10.988;2023-10-13T06:42:50;12.40;1.00
262;DHT22;114;48.260;10.988;2023-10-13T06:45:16;12.70;1.00
262;DHT22;114;48.260;10.988;2023-10-13T06:47:45;12.90;1.00
262;DHT22;114;48.260;10.988;2023-10-13T06:50:11;13.20;1.00
262;DHT22;114;48.260;10.988;2023-10-13T06:52:48;13.40;1.00
262;DHT22;114;48.260;10.988;2023-10-13T06:55:15;13.80;1.00
262;DHT22;114;48.260;10.988;2023-10-13T06:57:49;14.10;1.00
262;DHT22;114;48.260;10.988;2023-10-13T07:00:17;14.40;1.00
262;DHT22;114;48.260;10.988;2023-10-13T07:02:53;14.60;1.00
262;DHT22;114;48.260;10.988;2023-10-13T07:05:19;14.80;1.00
262;DHT22;114;48.260;10.988;2023-10-13T07:07:45;15.00;1.00
262;DHT22;114;48.260;10.988;2023-10-13T07:10:12;15.20;1.00
262;DHT22;114;48.260;10.988;2023-10-13T07:12:39;15.50;1.00
262;DHT22;114;48.260;10.988;2023-10-13T07:15:09;15.70;1.00
262;DHT22;114;48.260;10.988;2023-10-13T07:17:41;15.90;1.00
262;DHT22;114;48.260;10.988;2023-10-13T07:20:10;16.00;1.00
262;DHT22;114;48.260;10.988;2023-10-13T07:22:50;16.20;1.00
262;DHT22;114;48.260;10.988;2023-10-13T07:25:37;16.30;1.00
262;DHT22;114;48.260;10.988;2023-10-13T07:28:04;16.60;1.00
262;DHT22;114;48.260;10.988;2023-10-13T07:30:30;16.80;1.00
262;DHT22;114;48.260;10.988;2023-10-13T07:33:06;16.90;1.00
262;DHT22;114;48.260;10.988;2023-10-13T07:35:31;17.10;1.00
262;DHT22;114;48.260;10.988;2023-10-13T07:38:01;17.30;1.00
262;DHT22;114;48.260;10.988;2023-10-13T07:40:27;17.50;1.00
262;DHT22;114;48.260;10.988;2023-10-13T07:42:57;17.60;1.00
262;DHT22;114;48.260;10.988;2023-10-13T07:45:49;17.80;1.00
262;DHT22;114;48.260;10.988;2023-10-13T07:48:24;17.90;1.00
262;DHT22;114;48.260;10.988;2023-10-13T07:51:02;18.10;1.00
262;DHT22;114;48.260;10.988;2023-10-13T07:53:30;18.30;1.00
262;DHT22;114;48.260;10.988;2023-10-13T07:56:03;18.40;1.00
262;DHT22;114;48.260;10.988;2023-10-13T07:58:34;18.50;1.00
262;DHT22;114;48.260;10.988;2023-10-13T08:01:00;18.70;1.00
262;DHT22;114;48.260;10.988;2023-10-13T08:03:35;18.80;1.00
262;DHT22;114;48.260;10.988;2023-10-13T08:06:12;18.80;1.00
262;DHT22;114;48.260;10.988;2023-10-13T08:08:39;18.90;1.00
262;DHT22;114;48.260;10.988;2023-10-13T08:14:04;19.10;1.00
262;DHT22;114;48.260;10.988;2023-10-13T08:16:42;19.20;1.00
262;DHT22;114;48.260;10.988;2023-10-13T08:19:16;19.40;1.00
262;DHT22;114;48.260;10.988;2023-10-13T08:21:51;19.40;1.00
262;DHT22;114;48.260;10.988;2023-10-13T08:24:46;19.50;1.00
262;DHT22;114;48.260;10.988;2023-10-13T08:27:14;19.60;1.00
262;DHT22;114;48.260;10.988;2023-10-13T08:29:44;19.50;1.00
262;DHT22;114;48.260;10.988;2023-10-13T08:32:19;19.70;1.00
262;DHT22;114;48.260;10.988;2023-10-13T08:35:00;19.80;1.00
262;DHT22;114;48.260;10.988;2023-10-13T08:37:30;20.00;1.00
262;DHT22;114;48.260;10.988;2023-10-13T08:40:00;20.10;1.00
262;DHT22;114;48.260;10.988;2023-10-13T08:42:30;20.30;1.00
262;DHT22;114;48.260;10.988;2023-10-13T08:45:16;20.50;1.00
262;DHT22;114;48.260;10.988;2023-10-13T08:47:52;20.80;1.00
262;DHT22;114;48.260;10.988;2023-10-13T08:50:47;21.00;1.00
262;DHT22;114;48.260;10.988;2023-10-13T08:53:19;21.10;1.00
262;DHT22;114;48.260;10.988;2023-10-13T08:58:31;21.50;1.00
262;DHT22;114;48.260;10.988;2023-10-13T09:01:16;21.70;1.00
262;DHT22;114;48.260;10.988;2023-10-13T09:04:04;21.80;1.00
262;DHT22;114;48.260;10.988;2023-10-13T09:07:04;21.90;1.00
262;DHT22;114;48.260;10.988;2023-10-13T09:09:49;22.00;1.00
262;DHT22;114;48.260;10.988;2023-10-13T09:14:55;22.20;1.00
262;DHT22;114;48.260;10.988;2023-10-13T09:17:25;22.40;1.00
262;DHT22;114;48.260;10.988;2023-10-13T09:20:06;22.40;1.00
262;DHT22;114;48.260;10.988;2023-10-13T09:22:59;22.60;1.00
262;DHT22;114;48.260;10.988;2023-10-13T09:25:34;22.70;1.00
262;DHT22;114;48.260;10.988;2023-10-13T09:28:11;22.70;1.00
262;DHT22;114;48.260;10.988;2023-10-13T09:30:48;22.80;1.00
262;DHT22;114;48.260;10.988;2023-10-13T09:33:18;23.00;1.00
262;DHT22;114;48.260;10.988;2023-10-13T09:35:54;23.10;1.00
262;DHT22;114;48.260;10.988;2023-10-13T09:38:19;23.20;1.00
262;DHT22;114;48.260;10.988;2023-10-13T09:40:46;23.20;1.00
262;DHT22;114;48.260;10.988;2023-10-13T09:43:18;23.40;1.00
262;DHT22;114;48.260;10.988;2023-10-13T09:45:48;23.50;1.00
262;DHT22;114;48.260;10.988;2023-10-13T09:48:37;23.60;1.00
262;DHT22;114;48.260;10.988;2023-10-13T09:51:12;23.80;1.00
262;DHT22;114;48.260;10.988;2023-10-13T09:53:43;24.00;1.00
262;DHT22;114;48.260;10.988;2023-10-13T09:56:20;24.10;1.00
262;DHT22;114;48.260;10.988;2023-10-13T09:59:11;24.20;1.00
262;DHT22;114;48.260;10.988;2023-10-13T10:01:44;24.20;1.00
262;DHT22;114;48.260;10.988;2023-10-13T10:04:17;24.30;1.00
262;DHT22;114;48.260;10.988;2023-10-13T10:06:55;24.50;1.00
262;DHT22;114;48.260;10.988;2023-10-13T10:09:28;24.60;1.00
262;DHT22;114;48.260;10.988;2023-10-13T10:17:42;25.30;1.00
262;DHT22;114;48.260;10.988;2023-10-13T10:20:08;25.50;1.00
262;DHT22;114;48.260;10.988;2023-10-13T10:22:41;25.80;1.00
262;DHT22;114;48.260;10.988;2023-10-13T10:25:14;26.00;1.00
262;DHT22;114;48.260;10.988;2023-10-13T10:28:00;26.00;1.00
262;DHT22;114;48.260;10.988;2023-10-13T10:30:27;26.20;1.00
262;DHT22;114;48.260;10.988;2023-10-13T10:32:56;26.50;1.00
262;DHT22;114;48.260;10.988;2023-10-13T10:35:26;26.70;1.00
262;DHT22;114;48.260;10.988;2023-10-13T10:38:18;27.30;1.00
262;DHT22;114;48.260;10.988;2023-10-13T10:41:04;27.50;1.00
262;DHT22;114;48.260;10.988;2023-10-13T10:46:13;28.00;1.00
262;DHT22;114;48.260;10.988;2023-10-13T10:48:40;28.30;1.00
262;DHT22;114;48.260;10.988;2023-10-13T10:51:13;28.60;1.00
262;DHT22;114;48.260;10.988;2023-10-13T10:53:49;29.10;1.00
262;DHT22;114;48.260;10.988;2023-10-13T10:56:17;29.90;1.00
262;DHT22;114;48.260;10.988;2023-10-13T10:58:53;29.70;1.00
262;DHT22;114;48.260;10.988;2023-10-13T11:01:26;29.90;1.00
262;DHT22;114;48.260;10.988;2023-10-13T11:04:12;30.90;1.00
262;DHT22;114;48.260;10.988;2023-10-13T11:06:56;31.00;1.00
262;DHT22;114;48.260;10.988;2023-10-13T11:09:25;30.80;1.00
262;DHT22;114;48.260;10.988;2023-10-13T11:11:51;31.40;1.00
262;DHT22;114;48.260;10.988;2023-10-13T11:14:30;31.00;1.00
262;DHT22;114;48.260;10.988;2023-10-13T11:16:57;30.70;1.00
262;DHT22;114;48.260;10.988;2023-10-13T11:19:37;31.10;1.00
262;DHT22;114;48.260;10.988;2023-10-13T11:22:20;31.10;1.00
262;DHT22;114;48.260;10.988;2023-10-13T11:25:03;31.70;1.00
262;DHT22;114;48.260;10.988;2023-10-13T11:27:36;31.50;1.00
262;DHT22;114;48.260;10.988;2023-10-13T11:30:16;32.30;1.00
262;DHT22;114;48.260;10.988;2023-10-13T11:35:38;32.60;1.00
262;DHT22;114;48.260;10.988;2023-10-13T11:38:37;32.90;1.00
262;DHT22;114;48.260;10.988;2023-10-13T11:41:05;32.90;1.00
262;DHT22;114;48.260;10.988;2023-10-13T11:43:35;32.70;1.00
262;DHT22;114;48.260;10.988;2023-10-13T11:46:14;32.00;1.00
262;DHT22;114;48.260;10.988;2023-10-13T11:48:45;32.40;1.00
262;DHT22;114;48.260;10.988;2023-10-13T11:51:14;32.60;1.00
262;DHT22;114;48.260;10.988;2023-10-13T11:53:44;33.00;1.00
262;DHT22;114;48.260;10.988;2023-10-13T11:56:19;32.60;1.00
262;DHT22;114;48.260;10.988;2023-10-13T11:58:47;32.20;1.00
262;DHT22;114;48.260;10.988;2023-10-13T12:01:13;31.70;1.00
262;DHT22;114;48.260;10.988;2023-10-13T12:03:43;31.60;1.00
262;DHT22;114;48.260;10.988;2023-10-13T12:06:27;32.30;1.00
262;DHT22;114;48.260;10.988;2023-10-13T12:09:06;32.60;1.00
262;DHT22;114;48.260;10.988;2023-10-13T12:11:48;33.10;1.00
262;DHT22;114;48.260;10.988;2023-10-13T12:14:17;33.40;1.00
262;DHT22;114;48.260;10.988;2023-10-13T12:17:03;33.70;1.00
262;DHT22;114;48.260;10.988;2023-10-13T12:19:36;33.70;1.00
262;DHT22;114;48.260;10.988;2023-10-13T12:22:04;33.60;1.00
262;DHT22;114;48.260;10.988;2023-10-13T12:24:33;33.90;1.00
262;DHT22;114;48.260;10.988;2023-10-13T12:27:03;33.70;1.00
262;DHT22;114;48.260;10.988;2023-10-13T12:29:40;33.70;1.00
262;DHT22;114;48.260;10.988;2023-10-13T12:32:12;33.90;1.00
262;DHT22;114;48.260;10.988;2023-10-13T12:34:38;33.60;1.00
262;DHT22;114;48.260;10.988;2023-10-13T12:37:24;33.50;1.00
262;DHT22;114;48.260;10.988;2023-10-13T12:40:22;33.00;1.00
262;DHT22;114;48.260;10.988;2023-10-13T12:43:06;33.10;1.00
262;DHT22;114;48.260;10.988;2023-10-13T12:45:51;33.50;1.00
262;DHT22;114;48.260;10.988;2023-10-13T12:48:37;34.00;1.00
262;DHT22;114;48.260;10.988;2023-10-13T12:51:22;33.30;1.00
262;DHT22;114;48.260;10.988;2023-10-13T12:53:54;32.90;1.00
262;DHT22;114;48.260;10.988;2023-10-13T12:56:21;32.40;1.00
262;DHT22;114;48.260;10.988;2023-10-13T12:58:53;33.00;1.00
262;DHT22;114;48.260;10.988;2023-10-13T13:03:49;32.90;1.00
262;DHT22;114;48.260;10.988;2023-10-13T13:06:16;32.60;1.00
262;DHT22;114;48.260;10.988;2023-10-13T13:08:43;33.40;1.00
262;DHT22;114;48.260;10.988;2023-10-13T13:11:10;33.70;1.00
262;DHT22;114;48.260;10.988;2023-10-13T13:13:36;34.10;1.00
262;DHT22;114;48.260;10.988;2023-10-13T13:16:02;34.40;1.00
262;DHT22;114;48.260;10.988;2023-10-13T13:18:29;34.80;1.00
262;DHT22;114;48.260;10.988;2023-10-13T13:20:55;34.60;1.00
262;DHT22;114;48.260;10.988;2023-10-13T13:23:22;33.80;1.00
262;DHT22;114;48.260;10.988;2023-10-13T13:25:51;33.30;1.00
262;DHT22;114;48.260;10.988;2023-10-13T13:28:17;32.90;1.00
262;DHT22;114;48.260;10.988;2023-10-13T13:30:44;33.20;1.00
262;DHT22;114;48.260;10.988;2023-10-13T13:33:11;33.50;1.00
262;DHT22;114;48.260;10.988;2023-10-13T13:35:40;33.40;1.00
262;DHT22;114;48.260;10.988;2023-10-13T13:38:09;33.70;1.00
262;DHT22;114;48.260;10.988;2023-10-13T13:40:55;33.80;1.00
262;DHT22;114;48.260;10.988;2023-10-13T13:43:22;33.50;1.00
262;DHT22;114;48.260;10.988;2023-10-13T13:46:00;33.80;1.00
262;DHT22;114;48.260;10.988;2023-10-13T13:48:29;34.00;1.00
262;DHT22;114;48.260;10.988;2023-10-13T13:50:54;33.90;1.00
262;DHT22;114;48.260;10.988;2023-10-13T13:53:31;33.50;1.00
262;DHT22;114;48.260;10.988;2023-10-13T13:56:01;33.20;1.00
262;DHT22;114;48.260;10.988;2023-10-13T13:58:28;32.30;1.00
262;DHT22;114;48.260;10.988;2023-10-13T14:01:00;32.00;1.00
262;DHT22;114;48.260;10.988;2023-10-13T14:03:26;32.00;1.00
262;DHT22;114;48.260;10.988;2023-10-13T14:06:00;31.50;1.00
262;DHT22;114;48.260;10.988;2023-10-13T14:08:26;30.60;1.00
262;DHT22;114;48.260;10.988;2023-10-13T14:10:55;30.00;1.00
262;DHT22;114;48.260;10.988;2023-10-13T14:13:47;29.20;1.00
262;DHT22;114;48.260;10.988;2023-10-13T14:16:17;28.60;1.00
262;DHT22;114;48.260;10.988;2023-10-13T14:18:47;28.30;1.00
262;DHT22;114;48.260;10.988;2023-10-13T14:21:13;27.80;1.00
262;DHT22;114;48.260;10.988;2023-10-13T14:23:46;27.70;1.00
262;DHT22;114;48.260;10.988;2023-10-13T14:26:16;27.40;1.00
262;DHT22;114;48.260;10.988;2023-10-13T14:28:52;27.30;1.00
262;DHT22;114;48.260;10.988;2023-10-13T14:31:29;27.10;1.00
262;DHT22;114;48.260;10.988;2023-10-13T14:33:55;27.00;1.00
262;DHT22;114;48.260;10.988;2023-10-13T14:36:23;26.80;1.00
262;DHT22;114;48.260;10.988;2023-10-13T14:38:49;26.70;1.00
262;DHT22;114;48.260;10.988;2023-10-13T14:41:16;26.70;1.00
262;DHT22;114;48.260;10.988;2023-10-13T14:43:43;26.50;1.00
262;DHT22;114;48.260;10.988;2023-10-13T14:46:17;26.40;1.00
262;DHT22;114;48.260;10.988;2023-10-13T14:48:43;26.30;1.00
262;DHT22;114;48.260;10.988;2023-10-13T14:51:10;26.20;1.00
262;DHT22;114;48.260;10.988;2023-10-13T14:53:40;26.20;1.00
262;DHT22;114;48.260;10.988;2023-10-13T14:56:15;26.20;1.00
262;DHT22;114;48.260;10.988;2023-10-13T14:58:41;26.10;1.00
262;DHT22;114;48.260;10.988;2023-10-13T15:01:18;26.00;1.00
262;DHT22;114;48.260;10.988;2023-10-13T15:03:47;25.90;1.00
262;DHT22;114;48.260;10.988;2023-10-13T15:06:16;25.90;1.00
262;DHT22;114;48.260;10.988;2023-10-13T15:09:01;25.80;1.00
262;DHT22;114;48.260;10.988;2023-10-13T15:11:29;25.70;1.00
262;DHT22;114;48.260;10.988;2023-10-13T15:14:06;25.60;1.00
262;DHT22;114;48.260;10.988;2023-10-13T15:16:34;25.60;1.00
262;DHT22;114;48.260;10.988;2023-10-13T15:19:00;25.50;1.00
262;DHT22;114;48.260;10.988;2023-10-13T15:21:29;25.40;1.00
262;DHT22;114;48.260;10.988;2023-10-13T15:24:02;25.30;1.00
262;DHT22;114;48.260;10.988;2023-10-13T15:26:54;25.20;1.00
262;DHT22;114;48.260;10.988;2023-10-13T15:29:27;25.10;1.00
262;DHT22;114;48.260;10.988;2023-10-13T15:32:01;25.00;1.00
262;DHT22;114;48.260;10.988;2023-10-13T15:34:27;24.90;1.00
262;DHT22;114;48.260;10.988;2023-10-13T15:36:54;24.80;1.00
262;DHT22;114;48.260;10.988;2023-10-13T15:39:21;24.80;1.00
262;DHT22;114;48.260;10.988;2023-10-13T15:41:52;24.80;1.00
262;DHT22;114;48.260;10.988;2023-10-13T15:44:19;24.80;1.00
262;DHT22;114;48.260;10.988;2023-10-13T15:46:46;24.70;1.00
262;DHT22;114;48.260;10.988;2023-10-13T15:49:17;24.60;1.00
262;DHT22;114;48.260;10.988;2023-10-13T15:51:43;24.40;1.00
262;DHT22;114;48.260;10.988;2023-10-13T15:54:09;24.30;1.00
262;DHT22;114;48.260;10.988;2023-10-13T15:56:42;24.20;1.00
262;DHT22;114;48.260;10.988;2023-10-13T15:59:09;24.10;1.00
262;DHT22;114;48.260;10.988;2023-10-13T16:01:35;23.90;1.00
262;DHT22;114;48.260;10.988;2023-10-13T16:04:01;23.90;1.00
262;DHT22;114;48.260;10.988;2023-10-13T16:06:39;23.80;1.00
262;DHT22;114;48.260;10.988;2023-10-13T16:09:05;23.60;1.00
262;DHT22;114;48.260;10.988;2023-10-13T16:11:41;23.50;1.00
262;DHT22;114;48.260;10.988;2023-10-13T16:14:08;23.30;1.00
262;DHT22;114;48.260;10.988;2023-10-13T16:16:41;23.30;1.00
262;DHT22;114;48.260;10.988;2023-10-13T16:19:10;23.20;1.00
262;DHT22;114;48.260;10.988;2023-10-13T16:21:36;23.10;1.00
262;DHT22;114;48.260;10.988;2023-10-13T16:24:05;23.00;1.00
262;DHT22;114;48.260;10.988;2023-10-13T16:26:31;22.90;1.00
262;DHT22;114;48.260;10.988;2023-10-13T16:28:57;22.80;1.00
262;DHT22;114;48.260;10.988;2023-10-13T16:31:24;22.60;1.00
262;DHT22;114;48.260;10.988;2023-10-13T16:33:56;22.50;1.00
262;DHT22;114;48.260;10.988;2023-10-13T16:36:28;22.30;1.00
262;DHT22;114;48.260;10.988;2023-10-13T16:38:53;22.30;1.00
262;DHT22;114;48.260;10.988;2023-10-13T16:41:24;22.20;1.00
262;DHT22;114;48.260;10.988;2023-10-13T16:43:50;22.10;1.00
262;DHT22;114;48.260;10.988;2023-10-13T16:46:16;22.00;1.00
262;DHT22;114;48.260;10.988;2023-10-13T16:48:43;21.90;1.00
262;DHT22;114;48.260;10.988;2023-10-13T16:51:14;21.80;1.00
262;DHT22;114;48.260;10.988;2023-10-13T16:53:41;21.80;1.00
262;DHT22;114;48.260;10.988;2023-10-13T16:56:18;21.60;1.00
262;DHT22;114;48.260;10.988;2023-10-13T16:58:44;21.50;1.00
262;DHT22;114;48.260;10.988;2023-10-13T17:01:11;21.30;1.00
262;DHT22;114;48.260;10.988;2023-10-13T17:03:38;21.20;1.00
262;DHT22;114;48.260;10.988;2023-10-13T17:06:04;21.20;1.00
262;DHT22;114;48.260;10.988;2023-10-13T17:08:31;21.10;1.00
262;DHT22;114;48.260;10.988;2023-10-13T17:11:10;21.10;1.00
262;DHT22;114;48.260;10.988;2023-10-13T17:13:36;20.80;1.00
262;DHT22;114;48.260;10.988;2023-10-13T17:16:17;20.40;1.00
262;DHT22;114;48.260;10.988;2023-10-13T17:18:44;20.10;1.00
262;DHT22;114;48.260;10.988;2023-10-13T17:21:38;20.10;1.00
262;DHT22;114;48.260;10.988;2023-10-13T17:24:05;19.90;1.00
262;DHT22;114;48.260;10.988;2023-10-13T17:26:30;19.80;1.00
262;DHT22;114;48.260;10.988;2023-10-13T17:28:56;19.80;1.00
262;DHT22;114;48.260;10.988;2023-10-13T17:31:25;19.80;1.00
262;DHT22;114;48.260;10.988;2023-10-13T17:33:57;19.80;1.00
262;DHT22;114;48.260;10.988;2023-10-13T17:36:24;19.60;1.00
262;DHT22;114;48.260;10.988;2023-10-13T17:38:52;19.40;1.00
262;DHT22;114;48.260;10.988;2023-10-13T17:41:17;19.40;1.00
262;DHT22;114;48.260;10.988;2023-10-13T17:43:43;19.20;1.00
262;DHT22;114;48.260;10.988;2023-10-13T17:46:12;18.90;1.00
262;DHT22;114;48.260;10.988;2023-10-13T17:48:39;18.70;1.00
262;DHT22;114;48.260;10.988;2023-10-13T17:51:09;18.60;1.00